Time;durP1;ratioP1;P1;durP2;ratioP2;P2;SDS_P1;SDS_P2;PMS_P1;PMS_P2;Temp;Humidity;BMP_temperature;BMP_pressure;BME280_temperature;BME280_humidity;BME280_pressure;Samples;Min_cycle;Max_cycle;Signal;HPM_P1;HPM_P2
2021/04/01 00:00:16;;;;;;;17.13;7.80;;;;;;;;;;4954468;29;20514;-76
2021/04/01 00:02:43;;;;;;;11.60;7.73;;;;;;;;;;4954865;29;20905;-76
2021/04/01 00:05:09;;;;;;;11.47;8.63;;;;;;;;;;4954472;29;20507;-74
2021/04/01 00:10:40;;;;;;;10.23;8.33;;;;;;;;;;4954542;29;20427;-74
2021/04/01 00:13:06;;;;;;;11.37;9.37;;;;;;;;;;4954724;29;20414;-73
2021/04/01 00:15:32;;;;;;;16.60;8.83;;;;;;;;;;4954257;29;20559;-74
2021/04/01 00:17:58;;;;;;;14.40;8.20;;;;;;;;;;4954569;29;20443;-72
2021/04/01 00:20:24;;;;;;;10.90;7.90;;;;;;;;;;4954243;29;20435;-74
2021/04/01 00:25:54;;;;;;;8.90;6.43;;;;;;;;;;4954102;29;20419;-75
2021/04/01 00:28:20;;;;;;;17.10;9.37;;;;;;;;;;4953627;29;20638;-74
2021/04/01 00:30:46;;;;;;;23.30;8.77;;;;;;;;;;4954346;29;20415;-74
2021/04/01 00:33:12;;;;;;;11.93;8.17;;;;;;;;;;4954413;29;20426;-73
2021/04/01 00:35:38;;;;;;;12.90;7.40;;;;;;;;;;4954045;29;20538;-73
2021/04/01 00:38:04;;;;;;;15.17;6.83;;;;;;;;;;4954393;29;20903;-76
2021/04/01 00:40:30;;;;;;;15.93;9.07;;;;;;;;;;4953733;28;20460;-74
2021/04/01 00:42:56;;;;;;;12.03;8.20;;;;;;;;;;4954470;29;20411;-76
2021/04/01 00:45:22;;;;;;;15.00;7.77;;;;;;;;;;4954196;29;20411;-75
2021/04/01 00:47:49;;;;;;;11.00;6.97;;;;;;;;;;4954202;29;20415;-73
2021/04/01 00:50:23;;;;;;;14.30;7.77;;;;;;;;;;4953531;29;20486;-74
2021/04/01 00:55:52;;;;;;;25.03;8.10;;;;;;;;;;4954447;29;20517;-74
2021/04/01 00:58:19;;;;;;;11.77;7.50;;;;;;;;;;4954302;29;20451;-75
2021/04/01 01:00:48;;;;;;;10.27;7.40;;;;;;;;;;4953825;29;20523;-75
2021/04/01 01:03:14;;;;;;;13.70;7.50;;;;;;;;;;4936554;29;20848;-73
2021/04/01 01:05:40;;;;;;;11.73;7.23;;;;;;;;;;4936381;29;20483;-76
2021/04/01 01:11:10;;;;;;;12.33;7.40;;;;;;;;;;4954116;29;20521;-74
2021/04/01 01:13:36;;;;;;;10.47;6.80;;;;;;;;;;4953594;29;20463;-75
2021/04/01 01:16:02;;;;;;;10.57;7.13;;;;;;;;;;4953610;29;20479;-73
2021/04/01 01:18:28;;;;;;;9.80;6.20;;;;;;;;;;4953705;29;20423;-75
2021/04/01 01:20:58;;;;;;;11.07;8.00;;;;;;;;;;4953542;29;20431;-74
2021/04/01 01:23:25;;;;;;;14.00;7.13;;;;;;;;;;4953673;29;20427;-73
2021/04/01 01:25:52;;;;;;;12.20;7.80;;;;;;;;;;4953792;29;20416;-77
2021/04/01 01:28:18;;;;;;;12.80;7.37;;;;;;;;;;4953026;29;20558;-76
2021/04/01 01:30:44;;;;;;;14.73;8.40;;;;;;;;;;4954115;29;20973;-75
2021/04/01 01:33:16;;;;;;;13.53;8.23;;;;;;;;;;4953788;29;20770;-76
2021/04/01 01:35:42;;;;;;;10.00;7.67;;;;;;;;;;4953579;29;20478;-72
2021/04/01 01:41:11;;;;;;;11.40;8.33;;;;;;;;;;4953752;29;20510;-76
2021/04/01 01:43:37;;;;;;;15.43;7.27;;;;;;;;;;4953991;29;20426;-74
2021/04/01 01:46:03;;;;;;;12.50;8.50;;;;;;;;;;4953649;29;20883;-75
2021/04/01 01:48:29;;;;;;;13.30;7.30;;;;;;;;;;4953569;29;20507;-75
2021/04/01 01:50:58;;;;;;;13.90;7.50;;;;;;;;;;4953101;29;20469;-76
2021/04/01 01:56:28;;;;;;;12.70;7.40;;;;;;;;;;4957249;29;20571;-75
2021/04/01 01:58:54;;;;;;;15.93;7.80;;;;;;;;;;4956933;29;20510;-73
2021/04/01 02:01:22;;;;;;;9.80;7.80;;;;;;;;;;4957058;29;20899;-76
2021/04/01 02:03:48;;;;;;;12.60;7.60;;;;;;;;;;4957314;29;20419;-74
2021/04/01 02:06:15;;;;;;;19.00;7.97;;;;;;;;;;4956737;29;20502;-75
2021/04/01 02:08:41;;;;;;;11.07;7.17;;;;;;;;;;4956996;29;20716;-75
2021/04/01 02:11:08;;;;;;;11.00;7.80;;;;;;;;;;4957206;29;20407;-75
2021/04/01 02:13:34;;;;;;;13.43;7.17;;;;;;;;;;4956869;29;20706;-76
2021/04/01 02:16:00;;;;;;;9.13;7.37;;;;;;;;;;4956752;29;20854;-74
2021/04/01 02:18:28;;;;;;;9.80;6.97;;;;;;;;;;4956797;29;20411;-72
2021/04/01 02:20:55;;;;;;;11.67;7.23;;;;;;;;;;4956981;29;20434;-75
2021/04/01 02:26:24;;;;;;;14.07;6.67;;;;;;;;;;4956439;29;20469;-74
2021/04/01 02:28:50;;;;;;;11.90;6.67;;;;;;;;;;4955980;29;20451;-73
2021/04/01 02:31:20;;;;;;;13.17;7.00;;;;;;;;;;4956421;29;20447;-76
2021/04/01 02:33:46;;;;;;;8.60;7.03;;;;;;;;;;4956524;29;20423;-75
2021/04/01 02:36:12;;;;;;;9.60;7.90;;;;;;;;;;4956454;29;20427;-75
2021/04/01 02:41:41;;;;;;;13.07;8.23;;;;;;;;;;4956269;29;20933;-76
2021/04/01 02:44:07;;;;;;;9.10;6.33;;;;;;;;;;4956139;29;20415;-73
2021/04/01 02:46:33;;;;;;;10.67;6.77;;;;;;;;;;4956505;29;20463;-73
2021/04/01 02:48:59;;;;;;;11.90;7.80;;;;;;;;;;4956141;29;20443;-75
2021/04/01 02:51:25;;;;;;;8.33;6.53;;;;;;;;;;4955938;29;20483;-75
2021/04/01 02:53:51;;;;;;;8.83;7.00;;;;;;;;;;4956053;29;20486;-76
2021/04/01 02:56:17;;;;;;;11.00;8.60;;;;;;;;;;4956147;29;20423;-73
2021/04/01 02:58:43;;;;;;;9.67;7.83;;;;;;;;;;4956939;29;20788;-74
2021/04/01 03:01:09;;;;;;;10.20;8.47;;;;;;;;;;4956165;29;20424;-76
2021/04/01 03:03:42;;;;;;;12.20;7.83;;;;;;;;;;4955317;28;20419;-75
2021/04/01 03:06:08;;;;;;;18.50;8.40;;;;;;;;;;4955459;29;20416;-75
2021/04/01 03:11:37;;;;;;;11.70;7.97;;;;;;;;;;4955533;29;21181;-75
2021/04/01 03:14:03;;;;;;;12.40;7.60;;;;;;;;;;4955476;29;20445;-72
2021/04/01 03:16:29;;;;;;;14.87;8.30;;;;;;;;;;4955902;29;20774;-73
2021/04/01 03:18:55;;;;;;;13.23;7.30;;;;;;;;;;4955397;29;20922;-74
2021/04/01 03:21:21;;;;;;;13.20;8.00;;;;;;;;;;4955235;29;20467;-74
2021/04/01 03:26:51;;;;;;;10.63;6.90;;;;;;;;;;4955493;29;20434;-73
2021/04/01 03:29:17;;;;;;;15.80;7.93;;;;;;;;;;4954656;29;20514;-77
2021/04/01 03:31:43;;;;;;;16.17;7.43;;;;;;;;;;4955286;29;20517;-73
2021/04/01 03:34:09;;;;;;;9.23;6.83;;;;;;;;;;4954821;29;20602;-76
2021/04/01 03:36:35;;;;;;;13.60;8.53;;;;;;;;;;4955274;29;20914;-74
2021/04/01 03:42:05;;;;;;;11.63;6.97;;;;;;;;;;4955196;29;20421;-73
2021/04/01 03:44:31;;;;;;;12.60;7.17;;;;;;;;;;4955038;29;20470;-75
2021/04/01 03:46:57;;;;;;;14.77;7.17;;;;;;;;;;4954982;29;20474;-76
2021/04/01 03:49:23;;;;;;;9.20;6.63;;;;;;;;;;4954741;28;20427;-73
2021/04/01 03:51:49;;;;;;;9.43;6.63;;;;;;;;;;4937669;29;20482;-75
2021/04/01 03:54:15;;;;;;;10.20;6.00;;;;;;;;;;4955065;29;20487;-74
2021/04/01 03:56:48;;;;;;;13.90;7.87;;;;;;;;;;4954953;29;20428;-73
2021/04/01 03:59:14;;;;;;;11.03;7.30;;;;;;;;;;4954039;29;20419;-73
2021/04/01 04:15:04;;;;;;;14.70;7.70;;;;;;;;;;4954105;28;20488;-73
2021/04/01 04:17:30;;;;;;;13.07;7.07;;;;;;;;;;4954360;29;20414;-75
2021/04/01 04:19:56;;;;;;;12.13;7.90;;;;;;;;;;4954399;29;20439;-75
2021/04/01 04:22:22;;;;;;;12.53;7.90;;;;;;;;;;4954587;29;20430;-73
2021/04/01 04:24:49;;;;;;;12.37;8.20;;;;;;;;;;4936872;29;20488;-74
2021/04/01 04:29:59;;;;;;;10.23;7.93;;;;;;;;;;4954132;29;20423;-74
2021/04/01 04:32:29;;;;;;;10.77;7.77;;;;;;;;;;4954332;29;20419;-74
2021/04/01 04:34:55;;;;;;;14.03;7.07;;;;;;;;;;4954069;29;20481;-74
2021/04/01 04:37:21;;;;;;;13.10;7.90;;;;;;;;;;4954343;29;20780;-74
2021/04/01 04:39:47;;;;;;;11.87;7.37;;;;;;;;;;4954435;29;20427;-75
2021/04/01 04:42:13;;;;;;;15.17;7.57;;;;;;;;;;4936977;29;20903;-74
2021/04/01 04:44:39;;;;;;;15.37;7.93;;;;;;;;;;4954173;29;20419;-74
2021/04/01 04:47:05;;;;;;;10.77;7.30;;;;;;;;;;4954148;29;20931;-73
2021/04/01 04:49:31;;;;;;;12.73;6.77;;;;;;;;;;4953789;29;20427;-74
2021/04/01 04:51:57;;;;;;;10.40;7.40;;;;;;;;;;4953986;29;20434;-75
2021/04/01 04:57:41;;;;;;;12.17;6.90;;;;;;;;;;4955347;29;20449;-73
2021/04/01 05:05:30;;;;;;;16.40;7.50;;;;;;;;;;4954192;29;20496;-76
2021/04/01 05:07:56;;;;;;;10.43;6.50;;;;;;;;;;4953950;29;20426;-76
2021/04/01 05:10:23;;;;;;;15.50;9.07;;;;;;;;;;4936731;29;20600;-74
2021/04/01 05:13:00;;;;;;;11.43;7.67;;;;;;;;;;4954043;29;20429;-73
2021/04/01 05:15:26;;;;;;;13.00;7.80;;;;;;;;;;4953919;29;20481;-75
2021/04/01 05:17:57;;;;;;;15.43;7.73;;;;;;;;;;4953714;29;20414;-74
2021/04/01 05:20:23;;;;;;;13.37;8.00;;;;;;;;;;4953661;29;20420;-73
2021/04/01 05:22:52;;;;;;;15.77;8.17;;;;;;;;;;4953816;29;20506;-73
2021/04/01 05:25:20;;;;;;;10.37;6.80;;;;;;;;;;4953372;29;20998;-76
2021/04/01 05:27:54;;;;;;;21.33;6.93;;;;;;;;;;4956692;28;20571;-74
2021/04/01 05:30:20;;;;;;;19.60;7.40;;;;;;;;;;4957267;29;20443;-74
2021/04/01 05:32:47;;;;;;;11.50;7.77;;;;;;;;;;4957693;29;20422;-74
2021/04/01 05:35:15;;;;;;;14.47;7.60;;;;;;;;;;4957299;29;20980;-75
2021/04/01 05:37:41;;;;;;;9.60;6.77;;;;;;;;;;4957509;29;20505;-73
2021/04/01 05:40:09;;;;;;;14.37;7.77;;;;;;;;;;4957789;29;20515;-73
2021/04/01 05:42:38;;;;;;;16.83;7.73;;;;;;;;;;4958064;29;20923;-73
2021/04/01 05:47:46;;;;;;;10.50;7.17;;;;;;;;;;4958223;29;20504;-75
2021/04/01 06:06:27;;;;;;;31.30;9.03;;;;;;;;;;4957389;29;20411;-75
2021/04/01 06:08:54;;;;;;;12.83;7.40;;;;;;;;;;4957062;29;20447;-75
2021/04/01 06:11:21;;;;;;;18.23;7.77;;;;;;;;;;4957497;29;20985;-75
2021/04/01 06:14:09;;;;;;;23.93;8.50;;;;;;;;;;4957916;29;20425;-74
2021/04/01 06:16:35;;;;;;;26.73;8.50;;;;;;;;;;4957778;29;20434;-75
2021/04/01 06:19:04;;;;;;;20.80;8.00;;;;;;;;;;4957452;29;20755;-74
2021/04/01 06:21:30;;;;;;;18.53;7.63;;;;;;;;;;4957500;29;20907;-74
2021/04/01 06:24:13;;;;;;;24.00;8.67;;;;;;;;;;4957314;29;20487;-75
2021/04/01 06:26:41;;;;;;;18.17;7.87;;;;;;;;;;4957045;29;20419;-79
2021/04/01 06:29:09;;;;;;;12.10;8.30;;;;;;;;;;4956113;29;20448;-77
2021/04/01 06:31:43;;;;;;;8.63;6.40;;;;;;;;;;4956529;29;20420;-77
2021/04/01 06:34:09;;;;;;;17.00;7.33;;;;;;;;;;4956450;29;20454;-77
2021/04/01 06:36:37;;;;;;;19.07;9.47;;;;;;;;;;4956162;29;20446;-76
2021/04/01 06:39:04;;;;;;;10.73;7.40;;;;;;;;;;4955364;28;20462;-77
2021/04/01 06:41:31;;;;;;;21.90;7.50;;;;;;;;;;4955901;29;21089;-77
2021/04/01 06:44:11;;;;;;;17.60;8.10;;;;;;;;;;4956448;29;20432;-76
2021/04/01 06:46:47;;;;;;;17.13;7.27;;;;;;;;;;4956025;29;20911;-76
2021/04/01 06:52:03;;;;;;;17.50;9.17;;;;;;;;;;4956214;29;20447;-74
2021/04/01 06:54:54;;;;;;;24.73;10.43;;;;;;;;;;4956471;29;20467;-76
2021/04/01 06:57:35;;;;;;;28.40;8.83;;;;;;;;;;4956125;29;20434;-76
2021/04/01 07:03:12;;;;;;;28.73;9.83;;;;;;;;;;4940985;29;20470;-77
2021/04/01 07:05:41;;;;;;;19.57;7.80;;;;;;;;;;4955819;29;20412;-76
2021/04/01 07:11:23;;;;;;;15.17;8.90;;;;;;;;;;4955825;29;20422;-78
2021/04/01 07:13:53;;;;;;;12.90;7.97;;;;;;;;;;4955718;29;20498;-75
2021/04/01 07:16:46;;;;;;;37.53;10.10;;;;;;;;;;4955343;29;20448;-78
2021/04/01 07:19:33;;;;;;;15.90;9.07;;;;;;;;;;4954593;29;20457;-78
2021/04/01 07:47:08;;;;;;;13.77;6.93;;;;;;;;;;4954847;29;20423;-80
2021/04/01 07:49:38;;;;;;;9.63;8.03;;;;;;;;;;4954362;28;21009;-80
2021/04/01 07:52:06;;;;;;;17.20;9.37;;;;;;;;;;4955295;29;20431;-77
2021/04/01 07:54:37;;;;;;;18.77;9.00;;;;;;;;;;4950344;29;20489;-79
2021/04/01 07:57:18;;;;;;;17.57;8.33;;;;;;;;;;4954744;29;20479;-79
2021/04/01 08:04:48;;;;;;;19.93;9.70;;;;;;;;;;4954504;29;20419;-77
2021/04/01 08:07:15;;;;;;;15.03;9.90;;;;;;;;;;4955083;29;20423;-79
2021/04/01 08:09:44;;;;;;;25.97;9.60;;;;;;;;;;4955360;29;20751;-79
2021/04/01 08:12:16;;;;;;;19.17;9.00;;;;;;;;;;4954659;29;20416;-79
2021/04/01 08:14:46;;;;;;;23.60;9.40;;;;;;;;;;4954198;29;20475;-80
2021/04/01 08:17:20;;;;;;;19.67;9.00;;;;;;;;;;4937105;29;20469;-80
2021/04/01 08:19:49;;;;;;;20.27;8.53;;;;;;;;;;4954535;29;20870;-79
2021/04/01 08:22:16;;;;;;;12.50;8.60;;;;;;;;;;4954968;29;20558;-79
2021/04/01 08:24:50;;;;;;;17.57;8.00;;;;;;;;;;4954612;29;20499;-76
2021/04/01 08:27:39;;;;;;;7.93;7.13;;;;;;;;;;4954161;29;20418;-81
2021/04/01 08:35:22;;;;;;;10.20;6.43;;;;;;;;;;4954345;29;20521;-78
2021/04/01 08:38:34;;;;;;;11.00;6.37;;;;;;;;;;4954550;29;20519;-80
2021/04/01 08:40:35;;;;;;;9.03;5.57;;;;;;;;;;4947016;29;20431;-80
2021/04/01 08:43:15;;;;;;;9.93;5.73;;;;;;;;;;4936988;29;20495;-81
2021/04/01 08:45:49;;;;;;;7.87;6.30;;;;;;;;;;4954357;29;20426;-78
2021/04/01 08:48:37;;;;;;;9.87;4.93;;;;;;;;;;4954770;29;20407;-78
2021/04/01 08:51:03;;;;;;;13.07;5.53;;;;;;;;;;4953882;28;20561;-79
2021/04/01 08:53:37;;;;;;;6.90;4.80;;;;;;;;;;4954518;29;20432;-78
2021/04/01 08:56:24;;;;;;;6.57;4.53;;;;;;;;;;4955219;29;20534;-81
2021/04/01 08:59:01;;;;;;;10.90;5.00;;;;;;;;;;4954240;29;20479;-80
2021/04/01 09:01:32;;;;;;;10.00;5.13;;;;;;;;;;4954368;29;20435;-80
2021/04/01 09:04:01;;;;;;;12.80;4.90;;;;;;;;;;4954123;29;20458;-77
2021/04/01 09:06:48;;;;;;;14.93;5.33;;;;;;;;;;4954966;29;20420;-77
2021/04/01 09:15:05;;;;;;;6.10;3.87;;;;;;;;;;4954730;29;20474;-78
2021/04/01 09:17:35;;;;;;;16.60;5.20;;;;;;;;;;4937409;29;20463;-79
2021/04/01 09:20:14;;;;;;;9.70;4.70;;;;;;;;;;4953776;29;20925;-76
2021/04/01 09:22:44;;;;;;;8.97;4.27;;;;;;;;;;4953844;29;20443;-76
2021/04/01 09:28:14;;;;;;;6.20;4.13;;;;;;;;;;4953343;29;20426;-76
2021/04/01 09:30:41;;;;;;;7.33;5.30;;;;;;;;;;4953943;29;20483;-82
2021/04/01 09:33:27;;;;;;;8.87;4.47;;;;;;;;;;4952966;29;20487;-79
2021/04/01 09:35:53;;;;;;;8.57;4.47;;;;;;;;;;4936743;29;20510;-84
2021/04/01 09:38:20;;;;;;;12.83;5.30;;;;;;;;;;4953424;29;20424;-83
2021/04/01 09:43:51;;;;;;;14.30;5.10;;;;;;;;;;4953368;29;20800;-82
2021/04/01 09:46:19;;;;;;;7.70;5.20;;;;;;;;;;4953626;29;20475;-79
2021/04/01 09:49:00;;;;;;;6.90;4.73;;;;;;;;;;4952279;29;20754;-82
2021/04/01 09:51:29;;;;;;;8.37;4.63;;;;;;;;;;4952463;29;20482;-80
2021/04/01 09:53:58;;;;;;;10.50;5.37;;;;;;;;;;4952423;29;20471;-76
2021/04/01 09:59:47;;;;;;;13.17;5.13;;;;;;;;;;4952904;29;20421;-82
2021/04/01 10:02:29;;;;;;;8.07;5.20;;;;;;;;;;4952620;29;20423;-78
2021/04/01 10:05:25;;;;;;;7.70;5.57;;;;;;;;;;4952068;29;20412;-81
2021/04/01 10:08:13;;;;;;;11.73;5.17;;;;;;;;;;4946260;29;20439;-78
2021/04/01 10:10:40;;;;;;;12.27;5.57;;;;;;;;;;4951968;29;20431;-82
2021/04/01 10:13:27;;;;;;;9.33;4.63;;;;;;;;;;4935618;29;20435;-80
2021/04/01 10:16:01;;;;;;;14.17;7.00;;;;;;;;;;4938994;29;20483;-79
2021/04/01 10:18:37;;;;;;;12.97;5.43;;;;;;;;;;4956172;29;20399;-79
2021/04/01 10:21:10;;;;;;;8.73;4.90;;;;;;;;;;4956371;29;20419;-79
2021/04/01 10:23:43;;;;;;;7.90;4.73;;;;;;;;;;4956349;29;20423;-78
2021/04/01 10:26:10;;;;;;;12.50;5.10;;;;;;;;;;4941738;29;20428;-75
2021/04/01 10:31:09;;;;;;;9.30;4.37;;;;;;;;;;4957708;29;20427;-81
2021/04/01 10:33:46;;;;;;;8.27;5.50;;;;;;;;;;4956260;29;20424;-78
2021/04/01 10:36:14;;;;;;;9.90;5.80;;;;;;;;;;4955844;29;21120;-83
2021/04/01 10:38:41;;;;;;;5.20;4.60;;;;;;;;;;4956305;29;20498;-80
2021/04/01 10:41:19;;;;;;;5.07;4.57;;;;;;;;;;4956249;29;20412;-80
2021/04/01 10:43:45;;;;;;;9.33;5.20;;;;;;;;;;4956790;29;20758;-75
2021/04/01 10:46:18;;;;;;;7.60;5.37;;;;;;;;;;4957590;29;20775;-82
2021/04/01 10:48:48;;;;;;;7.03;4.63;;;;;;;;;;4956790;29;20481;-79
2021/04/01 10:51:15;;;;;;;9.20;5.03;;;;;;;;;;4956580;29;20471;-81
2021/04/01 10:53:42;;;;;;;10.40;5.30;;;;;;;;;;4953673;29;20411;-76
2021/04/01 10:56:09;;;;;;;7.93;6.13;;;;;;;;;;4953777;29;20474;-81
2021/04/01 10:58:36;;;;;;;7.53;5.13;;;;;;;;;;4956168;29;20438;-83
2021/04/01 11:01:06;;;;;;;9.30;4.83;;;;;;;;;;4955714;29;20430;-82
2021/04/01 11:03:37;;;;;;;7.73;4.70;;;;;;;;;;4955992;29;20768;-82
2021/04/01 11:06:05;;;;;;;9.87;4.57;;;;;;;;;;4956046;29;20446;-83
2021/04/01 11:08:39;;;;;;;5.60;3.77;;;;;;;;;;4955833;29;20910;-79
2021/04/01 11:11:05;;;;;;;6.30;4.67;;;;;;;;;;4955773;29;20890;-81
2021/04/01 11:13:38;;;;;;;6.37;4.50;;;;;;;;;;4955859;29;20530;-81
2021/04/01 11:16:11;;;;;;;5.80;4.47;;;;;;;;;;4955763;29;20534;-80
2021/04/01 11:18:39;;;;;;;10.23;5.07;;;;;;;;;;4938383;29;20448;-77
2021/04/01 11:21:06;;;;;;;7.80;5.00;;;;;;;;;;4955753;29;20758;-81
2021/04/01 11:23:34;;;;;;;8.53;5.03;;;;;;;;;;4955362;29;20510;-80
2021/04/01 11:26:00;;;;;;;7.07;4.77;;;;;;;;;;4955370;28;20449;-80
2021/04/01 11:28:37;;;;;;;5.00;4.20;;;;;;;;;;4955625;29;21082;-83
2021/04/01 11:31:03;;;;;;;5.00;4.50;;;;;;;;;;4938062;29;20836;-79
2021/04/01 11:33:30;;;;;;;8.50;4.90;;;;;;;;;;4955442;29;20412;-81
2021/04/01 11:36:18;;;;;;;6.87;3.73;;;;;;;;;;4955233;29;20486;-78
2021/04/01 11:38:49;;;;;;;10.20;4.60;;;;;;;;;;4952560;29;20918;-76
2021/04/01 11:41:16;;;;;;;4.63;3.90;;;;;;;;;;4955166;29;20500;-78
2021/04/01 11:43:42;;;;;;;5.73;4.30;;;;;;;;;;4955407;29;20412;-81
2021/04/01 11:46:16;;;;;;;5.43;4.93;;;;;;;;;;4955149;29;20416;-82
2021/04/01 11:48:42;;;;;;;8.50;4.07;;;;;;;;;;4955097;29;20940;-79
2021/04/01 11:51:11;;;;;;;4.60;3.57;;;;;;;;;;4954955;29;20514;-82
2021/04/01 11:53:40;;;;;;;6.33;3.47;;;;;;;;;;4954782;29;20423;-82
2021/04/01 11:56:06;;;;;;;4.63;3.53;;;;;;;;;;4954840;29;20514;-82
2021/04/01 11:58:32;;;;;;;5.47;3.13;;;;;;;;;;4955287;29;20498;-78
2021/04/01 12:01:34;;;;;;;5.23;3.10;;;;;;;;;;4955633;29;20474;-82
2021/04/01 12:04:02;;;;;;;6.53;3.87;;;;;;;;;;4955481;29;20435;-80
2021/04/01 12:06:29;;;;;;;5.10;3.10;;;;;;;;;;4957172;29;20769;-84
2021/04/01 12:08:56;;;;;;;4.10;3.70;;;;;;;;;;4939694;29;20423;-77
2021/04/01 12:11:23;;;;;;;4.13;3.70;;;;;;;;;;4957197;29;20418;-83
2021/04/01 12:13:49;;;;;;;5.30;4.00;;;;;;;;;;4957763;29;20446;-82
2021/04/01 12:16:18;;;;;;;8.60;4.60;;;;;;;;;;4956906;29;20966;-84
2021/04/01 12:18:45;;;;;;;6.67;4.60;;;;;;;;;;4956046;29;20420;-83
2021/04/01 12:21:12;;;;;;;5.83;4.33;;;;;;;;;;4956058;29;20426;-84
2021/04/01 12:23:42;;;;;;;7.10;4.87;;;;;;;;;;4956112;29;20775;-82
2021/04/01 12:26:08;;;;;;;8.87;4.50;;;;;;;;;;4955906;29;20778;-85
2021/04/01 12:28:34;;;;;;;8.23;4.37;;;;;;;;;;4955727;29;20416;-85
2021/04/01 12:31:01;;;;;;;10.77;4.70;;;;;;;;;;4956071;29;20424;-85
2021/04/01 12:33:28;;;;;;;9.80;4.37;;;;;;;;;;4956430;29;20455;-79
2021/04/01 12:35:58;;;;;;;7.33;4.27;;;;;;;;;;4955169;28;20584;-83
2021/04/01 12:38:28;;;;;;;12.63;4.43;;;;;;;;;;4955275;29;20424;-83
2021/04/01 12:40:55;;;;;;;4.20;3.80;;;;;;;;;;4937833;29;20510;-83
2021/04/01 12:43:28;;;;;;;6.70;3.90;;;;;;;;;;4955491;29;20407;-84
2021/04/01 12:45:55;;;;;;;3.13;2.90;;;;;;;;;;4955362;29;20407;-84
2021/04/01 12:48:21;;;;;;;8.83;3.70;;;;;;;;;;4955403;29;20400;-81
2021/04/01 12:50:49;;;;;;;6.40;3.43;;;;;;;;;;4954931;28;20544;-79
2021/04/01 12:53:17;;;;;;;9.83;3.70;;;;;;;;;;4955424;29;20914;-85
2021/04/01 12:55:49;;;;;;;7.00;4.00;;;;;;;;;;4961300;29;20479;-81
2021/04/01 13:01:33;;;;;;;9.47;3.90;;;;;;;;;;4958879;29;20898;-81
2021/04/01 13:04:02;;;;;;;4.23;3.00;;;;;;;;;;4955377;29;20423;-83
2021/04/01 13:11:29;;;;;;;6.30;3.10;;;;;;;;;;4955279;29;20514;-83
2021/04/01 13:13:56;;;;;;;3.73;2.67;;;;;;;;;;4955302;29;20438;-78
2021/04/01 13:16:22;;;;;;;7.23;3.03;;;;;;;;;;4955242;29;20887;-84
2021/04/01 13:18:48;;;;;;;6.50;3.27;;;;;;;;;;4955109;29;20419;-79
2021/04/01 13:21:31;;;;;;;7.80;4.00;;;;;;;;;;4955172;29;20446;-81
2021/04/01 13:26:49;;;;;;;3.60;3.13;;;;;;;;;;4939444;29;20428;-79
2021/04/01 13:29:16;;;;;;;4.93;3.13;;;;;;;;;;4956049;29;20445;-79
2021/04/01 13:32:04;;;;;;;6.40;2.83;;;;;;;;;;4956056;29;20420;-74
2021/04/01 13:39:26;;;;;;;9.53;3.23;;;;;;;;;;4955181;29;20428;-83
2021/04/01 13:44:24;;;;;;;11.77;2.90;;;;;;;;;;4955290;29;20452;-78
2021/04/01 13:46:52;;;;;;;6.50;3.37;;;;;;;;;;4954957;29;20427;-74
2021/04/01 13:49:25;;;;;;;4.40;3.10;;;;;;;;;;4958220;28;20484;-74
2021/04/01 13:51:55;;;;;;;8.93;3.23;;;;;;;;;;4958351;29;21032;-73
2021/04/01 13:57:11;;;;;;;5.73;3.50;;;;;;;;;;4958989;29;20442;-74
2021/04/01 13:59:54;;;;;;;7.87;3.90;;;;;;;;;;4958491;29;20419;-82
2021/04/01 14:10:36;;;;;;;5.37;2.70;;;;;;;;;;4958336;29;20993;-77
2021/04/01 14:13:03;;;;;;;5.80;2.90;;;;;;;;;;4958289;29;20498;-82
2021/04/01 14:15:29;;;;;;;4.30;2.83;;;;;;;;;;4958323;29;20531;-76
2021/04/01 14:17:55;;;;;;;4.83;3.20;;;;;;;;;;4958410;29;20839;-82
2021/04/01 14:20:21;;;;;;;6.20;3.20;;;;;;;;;;4957934;29;20901;-83
2021/04/01 14:22:49;;;;;;;4.53;2.60;;;;;;;;;;4958082;29;20522;-81
2021/04/01 14:25:32;;;;;;;3.30;2.90;;;;;;;;;;4957119;29;20424;-83
2021/04/01 14:28:02;;;;;;;3.60;3.07;;;;;;;;;;4957561;29;20415;-81
2021/04/01 14:30:29;;;;;;;3.27;2.60;;;;;;;;;;4957684;29;20420;-82
2021/04/01 14:32:55;;;;;;;5.73;3.60;;;;;;;;;;4957781;29;20411;-82
2021/04/01 14:35:22;;;;;;;8.80;3.27;;;;;;;;;;4957628;29;20463;-81
2021/04/01 14:37:49;;;;;;;4.33;3.03;;;;;;;;;;4957659;29;20796;-77
2021/04/01 14:40:15;;;;;;;5.63;3.47;;;;;;;;;;4957659;29;20423;-82
2021/04/01 14:42:47;;;;;;;8.07;4.17;;;;;;;;;;4957653;29;20412;-83
2021/04/01 14:45:14;;;;;;;4.00;3.60;;;;;;;;;;4957850;29;20432;-83
2021/04/01 14:47:40;;;;;;;6.57;4.13;;;;;;;;;;4957760;29;20463;-82
2021/04/01 14:50:08;;;;;;;5.40;4.00;;;;;;;;;;4957220;29;20869;-78
2021/04/01 14:52:35;;;;;;;7.80;4.03;;;;;;;;;;4957375;29;20430;-82
2021/04/01 14:55:02;;;;;;;7.20;4.40;;;;;;;;;;4957258;29;20538;-81
2021/04/01 14:57:29;;;;;;;8.87;4.70;;;;;;;;;;4957604;29;20479;-81
2021/04/01 14:59:55;;;;;;;8.63;4.07;;;;;;;;;;4955781;28;20754;-83
2021/04/01 15:02:22;;;;;;;7.00;4.57;;;;;;;;;;4957129;29;20502;-78
2021/04/01 15:04:48;;;;;;;8.70;4.70;;;;;;;;;;4957084;29;20459;-81
2021/04/01 15:07:14;;;;;;;7.50;4.60;;;;;;;;;;4957058;29;20778;-81
2021/04/01 15:09:41;;;;;;;4.97;3.93;;;;;;;;;;4957049;29;20419;-79
2021/04/01 15:12:08;;;;;;;6.47;4.43;;;;;;;;;;4956911;29;20486;-80
2021/04/01 15:17:37;;;;;;;8.20;4.17;;;;;;;;;;4956878;29;20410;-81
2021/04/01 15:20:05;;;;;;;7.40;3.97;;;;;;;;;;4956066;29;20423;-80
2021/04/01 15:22:31;;;;;;;9.17;4.10;;;;;;;;;;4955886;29;20451;-81
2021/04/01 15:24:57;;;;;;;8.80;3.63;;;;;;;;;;4962100;29;20419;-77
2021/04/01 15:33:12;;;;;;;8.20;4.17;;;;;;;;;;4955835;29;20476;-79
2021/04/01 15:35:38;;;;;;;9.67;3.70;;;;;;;;;;4955249;29;21064;-77
2021/04/01 15:38:04;;;;;;;6.97;4.10;;;;;;;;;;4955302;29;20419;-79
2021/04/01 15:40:30;;;;;;;6.57;3.80;;;;;;;;;;4955066;29;20423;-78
2021/04/01 15:42:56;;;;;;;3.40;3.00;;;;;;;;;;4954840;29;20415;-81
2021/04/01 15:45:22;;;;;;;4.57;3.53;;;;;;;;;;4954689;29;20887;-81
2021/04/01 15:47:48;;;;;;;5.37;3.83;;;;;;;;;;4954896;29;20408;-78
2021/04/01 15:50:15;;;;;;;8.50;3.73;;;;;;;;;;4937465;29;20556;-79
2021/04/01 15:52:41;;;;;;;9.00;3.80;;;;;;;;;;4933807;29;20432;-80
2021/04/01 15:55:08;;;;;;;12.63;3.90;;;;;;;;;;4934487;29;21071;-80
2021/04/01 15:57:35;;;;;;;6.60;4.03;;;;;;;;;;4935139;29;20420;-83
2021/04/01 16:03:04;;;;;;;10.27;4.30;;;;;;;;;;4935068;29;20859;-81
2021/04/01 16:05:30;;;;;;;10.57;4.10;;;;;;;;;;4934687;29;20425;-82
2021/04/01 16:07:56;;;;;;;7.20;3.97;;;;;;;;;;4934921;29;20435;-83
2021/04/01 16:10:22;;;;;;;6.23;4.07;;;;;;;;;;4935762;29;20423;-82
2021/04/01 16:12:48;;;;;;;266.60;200.87;;;;;;;;;;4935555;29;20942;-83
2021/04/01 16:18:18;;;;;;;8.37;7.50;;;;;;;;;;4934936;29;20419;-83
2021/04/01 16:20:45;;;;;;;6.97;4.70;;;;;;;;;;4934635;29;20892;-80
2021/04/01 16:23:11;;;;;;;7.37;5.40;;;;;;;;;;4933460;29;20437;-83
2021/04/01 16:25:37;;;;;;;10.23;5.83;;;;;;;;;;4934800;29;21045;-83
2021/04/01 16:28:03;;;;;;;9.33;6.37;;;;;;;;;;4934557;29;20484;-83
2021/04/01 16:30:30;;;;;;;7.53;6.10;;;;;;;;;;4933691;29;20420;-84
2021/04/01 16:32:57;;;;;;;10.03;6.73;;;;;;;;;;4933414;29;20423;-84
2021/04/01 16:35:24;;;;;;;9.57;6.20;;;;;;;;;;4933734;29;20839;-83
2021/04/01 16:37:52;;;;;;;12.40;6.60;;;;;;;;;;4934215;29;20416;-82
2021/04/01 16:40:19;;;;;;;10.83;6.40;;;;;;;;;;4934552;29;20424;-83
2021/04/01 16:42:46;;;;;;;13.80;6.50;;;;;;;;;;4934963;29;20481;-80
2021/04/01 16:48:16;;;;;;;10.60;7.13;;;;;;;;;;4933904;29;20431;-83
2021/04/01 16:50:42;;;;;;;13.10;7.80;;;;;;;;;;4943223;29;20831;-80
2021/04/01 16:53:18;;;;;;;11.13;8.93;;;;;;;;;;4935325;29;20440;-82
2021/04/01 16:55:51;;;;;;;12.63;9.63;;;;;;;;;;4953061;29;20475;-74
2021/04/01 16:58:43;;;;;;;18.97;10.23;;;;;;;;;;4952489;29;20404;-75
2021/04/01 17:01:09;;;;;;;22.83;10.30;;;;;;;;;;4950139;29;20446;-77
2021/04/01 17:03:35;;;;;;;17.13;10.53;;;;;;;;;;4952689;29;20423;-77
2021/04/01 17:06:03;;;;;;;15.77;11.10;;;;;;;;;;4952391;29;20510;-79
2021/04/01 17:08:29;;;;;;;15.10;10.40;;;;;;;;;;4952337;29;20499;-81
2021/04/01 17:10:55;;;;;;;15.63;10.30;;;;;;;;;;4951996;29;20819;-78
2021/04/01 17:19:11;;;;;;;19.40;12.70;;;;;;;;;;4952790;29;20519;-76
2021/04/01 17:21:40;;;;;;;17.17;12.73;;;;;;;;;;4952983;29;20423;-75
2021/04/01 17:24:07;;;;;;;22.60;14.60;;;;;;;;;;4956207;28;20834;-80
2021/04/01 17:26:34;;;;;;;24.53;14.20;;;;;;;;;;4957132;29;20773;-75
2021/04/01 17:29:03;;;;;;;23.83;15.20;;;;;;;;;;4956572;29;20826;-76
2021/04/01 17:31:29;;;;;;;20.90;13.90;;;;;;;;;;4956300;29;20430;-77
2021/04/01 17:33:55;;;;;;;22.93;14.47;;;;;;;;;;4939954;29;20431;-74
2021/04/01 17:36:21;;;;;;;21.27;14.37;;;;;;;;;;4956891;29;20530;-76
2021/04/01 17:38:47;;;;;;;26.27;14.60;;;;;;;;;;4939717;29;20922;-73
2021/04/01 17:41:14;;;;;;;21.47;14.77;;;;;;;;;;4957517;29;20434;-75
2021/04/01 17:43:40;;;;;;;24.70;15.70;;;;;;;;;;4956203;29;20419;-74
2021/04/01 17:46:06;;;;;;;20.80;13.60;;;;;;;;;;4959106;29;20455;-75
2021/04/01 17:48:32;;;;;;;24.73;14.47;;;;;;;;;;4959236;29;20430;-78
2021/04/01 17:50:59;;;;;;;26.20;14.73;;;;;;;;;;4958677;29;20504;-80
2021/04/01 17:53:25;;;;;;;20.67;14.07;;;;;;;;;;4939631;29;20922;-75
2021/04/01 17:55:59;;;;;;;25.10;13.43;;;;;;;;;;4956284;29;20482;-82
2021/04/01 17:58:27;;;;;;;19.47;13.70;;;;;;;;;;4956047;29;20485;-83